TAF and METAR

Decoding for American and Canadian METARs and TAFs is not fully implemented.

Could not understand the following METAR

CYRB 141500Z 24003KT 230V340 3SM IC SKC M30/M33 A2981 RMK IC1 VIS LWR NE SLP108

TAF for Resolute Bay Airport

TAF AMD CYRB 141506Z 1415/1512 VRB03KT 3SM IC BR SKC TEMPO 1415/1502 P6SM NSW BECMG 1415/1417 01015KT FM150200 02018KT 21/2SM IC BLSN SKC TEMPO 1502/1512 P6SM NSW PROB30 1508/1512 1SM IC BLSN RMK NXT FCST BY 141800Z
Report created 14. des 16:06

between 14. des 16:00 - 15. des 13:00

wind 3 knots from various directions
Resolute Bay Airport in Canada at 67m

Latest 5 airports